Bettsville, Ohio
Current Conditions -  °F | °C
As of 3:53 PM on Monday 24 Nov 2014 (Local Time) from KTDZ Reporting Station
Overcast Overcast  
Wind Chill: 30°   Ceiling: 2300
Heat Index: 41°   Visibility: 10mi
Dew Point: 32°   Wind: 28mph
Humidity: 70%   Direction: 230°SW
Pressure: 29.53"   Gusts: 43mph
Location:  41.25°N, 83.24°W
Report Text: KTDZ 242053Z AUTO 23024G37KT 10SM OVC023 05/00 A2953 RMK AO2 PK WND 23043/1958 PRESRR SLP999 T00500000 TSNO $
Loading
Personal Weather Stations






























Interactive Weather Map New forecast layout! Learn more

10-Day Weather Forecast

Advertisements
Track Severe Weather on mobile